createdAt,value
2022-09-15T00:01:16.511Z,4.50
2022-09-15T00:03:44.635Z,4.57
2022-09-15T00:06:12.926Z,4.13
2022-09-15T00:08:42.722Z,4.25
2022-09-15T00:11:13.391Z,3.47
2022-09-15T00:13:41.856Z,3.92
2022-09-15T00:16:14.846Z,4.32
2022-09-15T00:18:43.899Z,4.10
2022-09-15T00:21:14.515Z,4.38
2022-09-15T00:23:44.162Z,3.95
2022-09-15T00:26:14.750Z,5.35
2022-09-15T00:28:43.265Z,5.75
2022-09-15T00:31:14.164Z,5.20
2022-09-15T00:33:42.927Z,4.32
2022-09-15T00:36:14.198Z,4.40
2022-09-15T00:38:43.658Z,4.05
2022-09-15T00:41:13.680Z,4.25
2022-09-15T00:43:53.003Z,4.50
2022-09-15T00:46:23.869Z,4.90
2022-09-15T00:48:57.811Z,4.80
2022-09-15T00:51:33.636Z,4.70
2022-09-15T00:54:06.336Z,3.90
2022-09-15T00:56:36.165Z,3.85
2022-09-15T00:59:11.440Z,4.03
2022-09-15T01:01:42.055Z,4.40
2022-09-15T01:04:10.975Z,4.55
2022-09-15T01:06:43.521Z,4.40
2022-09-15T01:09:19.426Z,4.13
2022-09-15T01:11:47.824Z,4.57
2022-09-15T01:14:16.079Z,3.72
2022-09-15T01:16:53.497Z,4.25
2022-09-15T01:19:47.706Z,4.03
2022-09-15T01:22:31.228Z,4.28
2022-09-15T01:25:10.261Z,3.90
2022-09-15T01:28:03.055Z,4.25
2022-09-15T01:30:37.043Z,4.03
2022-09-15T01:33:13.279Z,4.55
2022-09-15T01:35:52.295Z,3.50
2022-09-15T01:38:30.627Z,4.05
2022-09-15T01:41:03.427Z,3.60
2022-09-15T01:43:34.383Z,3.70
2022-09-15T01:46:05.694Z,4.07
2022-09-15T01:48:37.312Z,3.92
2022-09-15T01:51:08.075Z,3.60
2022-09-15T01:53:36.823Z,4.03
2022-09-15T01:56:08.413Z,4.20
2022-09-15T01:58:38.250Z,4.60
2022-09-15T02:01:14.075Z,4.07
2022-09-15T02:03:47.099Z,4.50
2022-09-15T02:06:22.337Z,4.15
2022-09-15T02:08:57.459Z,4.55
2022-09-15T02:11:28.150Z,4.10
2022-09-15T02:14:11.573Z,4.25
2022-09-15T02:16:45.350Z,4.18
2022-09-15T02:19:19.845Z,3.78
2022-09-15T02:21:58.540Z,4.32
2022-09-15T02:24:32.354Z,4.30
2022-09-15T02:27:03.295Z,4.35
2022-09-15T02:29:36.462Z,5.43
2022-09-15T02:32:08.085Z,5.32
2022-09-15T02:34:40.934Z,4.63
2022-09-15T02:37:10.994Z,4.57
2022-09-15T02:39:44.703Z,4.63
2022-09-15T02:42:13.440Z,4.45
2022-09-15T02:44:41.404Z,5.15
2022-09-15T02:47:10.800Z,4.05
2022-09-15T02:49:38.842Z,4.13
2022-09-15T02:52:06.909Z,4.22
2022-09-15T02:54:34.862Z,4.25
2022-09-15T02:57:02.970Z,4.28
2022-09-15T02:59:51.710Z,4.55
2022-09-15T03:02:21.647Z,4.32
2022-09-15T03:04:50.604Z,4.70
2022-09-15T03:07:19.452Z,3.90
2022-09-15T03:09:47.434Z,4.38
2022-09-15T03:12:16.068Z,4.97
2022-09-15T03:14:44.597Z,5.63
2022-09-15T03:17:12.571Z,4.88
2022-09-15T03:19:41.992Z,5.30
2022-09-15T03:22:10.561Z,5.15
2022-09-15T03:24:39.206Z,4.05
2022-09-15T03:27:07.253Z,5.00
2022-09-15T03:29:35.308Z,4.85
2022-09-15T03:32:03.851Z,5.28
2022-09-15T03:34:31.892Z,5.25
2022-09-15T03:37:01.240Z,5.35
2022-09-15T03:39:29.204Z,5.40
2022-09-15T03:41:57.240Z,4.88
2022-09-15T03:44:25.556Z,6.18
2022-09-15T03:46:53.600Z,5.20
2022-09-15T03:49:21.749Z,5.50
2022-09-15T03:51:49.704Z,6.53
2022-09-15T03:54:19.687Z,6.13
2022-09-15T03:56:49.121Z,5.93
2022-09-15T03:59:19.583Z,5.40
2022-09-15T04:01:48.647Z,5.60
2022-09-15T04:04:16.850Z,5.90
2022-09-15T04:06:45.261Z,6.40
2022-09-15T04:09:13.681Z,6.40
2022-09-15T04:11:42.976Z,6.53
2022-09-15T04:14:11.235Z,5.70
2022-09-15T04:16:39.348Z,5.87
2022-09-15T04:19:07.570Z,5.82
2022-09-15T04:21:35.574Z,6.45
2022-09-15T04:24:04.904Z,6.18
2022-09-15T04:26:34.422Z,6.35
2022-09-15T04:29:05.903Z,6.50
2022-09-15T04:31:35.114Z,6.50
2022-09-15T04:34:03.186Z,6.90
2022-09-15T04:36:31.485Z,6.18
2022-09-15T04:38:59.471Z,6.50
2022-09-15T04:41:28.457Z,6.78
2022-09-15T04:43:56.916Z,7.10
2022-09-15T04:46:26.523Z,8.07
2022-09-15T04:48:54.493Z,6.70
2022-09-15T04:51:23.239Z,7.97
2022-09-15T04:53:51.881Z,7.72
2022-09-15T04:56:22.146Z,7.25
2022-09-15T04:58:53.039Z,7.22
2022-09-15T05:01:23.138Z,7.15
2022-09-15T05:03:53.147Z,8.77
2022-09-15T05:06:23.116Z,9.52
2022-09-15T05:08:53.122Z,9.13
2022-09-15T05:11:21.565Z,9.70
2022-09-15T05:13:50.188Z,8.98
2022-09-15T05:16:20.410Z,8.98
2022-09-15T05:18:49.806Z,7.22
2022-09-15T05:21:21.443Z,8.52
2022-09-15T05:23:50.378Z,7.63
2022-09-15T05:26:20.904Z,7.82
2022-09-15T05:28:49.057Z,7.30
2022-09-15T05:31:21.180Z,8.23
2022-09-15T05:33:50.935Z,8.07
2022-09-15T05:36:23.461Z,8.52
2022-09-15T05:38:51.704Z,7.20
2022-09-15T05:41:20.928Z,7.90
2022-09-15T05:43:50.777Z,7.80
2022-09-15T05:46:20.635Z,7.50
2022-09-15T05:48:48.806Z,7.20
2022-09-15T05:51:16.831Z,8.18
2022-09-15T05:53:46.266Z,8.18
2022-09-15T05:56:15.939Z,7.97
2022-09-15T05:58:45.939Z,8.30
2022-09-15T06:01:16.395Z,8.05
2022-09-15T06:03:44.972Z,8.00
2022-09-15T06:06:13.441Z,8.32
2022-09-15T06:08:45.339Z,8.60
2022-09-15T06:11:19.033Z,9.55
2022-09-15T06:13:47.932Z,8.52
2022-09-15T06:16:18.433Z,6.82
2022-09-15T06:18:48.059Z,6.65
2022-09-15T06:21:18.685Z,6.55
2022-09-15T06:23:50.694Z,6.70
2022-09-15T06:26:21.504Z,6.82
2022-09-15T06:28:51.390Z,6.97
2022-09-15T06:31:20.557Z,6.55
2022-09-15T06:33:51.397Z,5.88
2022-09-15T06:36:21.767Z,5.85
2022-09-15T06:38:50.176Z,6.13
2022-09-15T06:41:18.247Z,6.32
2022-09-15T06:43:49.298Z,5.72
2022-09-15T06:46:19.340Z,5.25
2022-09-15T06:48:48.670Z,5.60
2022-09-15T06:51:18.721Z,6.20
2022-09-15T06:53:47.058Z,6.80
2022-09-15T06:56:17.201Z,6.97
2022-09-15T06:58:46.255Z,7.97
2022-09-15T07:01:20.595Z,7.05
2022-09-15T07:03:48.677Z,8.48
2022-09-15T07:06:17.069Z,8.27
2022-09-15T07:08:45.496Z,8.80
2022-09-15T07:11:13.874Z,8.68
2022-09-15T07:13:42.674Z,8.40
2022-09-15T07:16:13.684Z,9.52
2022-09-15T07:18:43.779Z,8.68
2022-09-15T07:21:14.500Z,8.50
2022-09-15T07:23:43.062Z,9.32
2022-09-15T07:26:13.358Z,9.35
2022-09-15T07:28:42.707Z,9.02
2022-09-15T07:31:13.622Z,9.27
2022-09-15T07:33:43.218Z,9.43
2022-09-15T07:36:12.024Z,8.13
2022-09-15T07:38:41.857Z,8.38
2022-09-15T07:41:12.393Z,7.40
2022-09-15T07:43:40.686Z,7.03
2022-09-15T07:46:08.855Z,7.07
2022-09-15T07:48:36.935Z,7.78
2022-09-15T07:51:06.604Z,8.35
2022-09-15T07:53:34.628Z,7.90
2022-09-15T07:56:02.854Z,7.43
2022-09-15T07:58:30.972Z,7.25
2022-09-15T08:01:03.439Z,6.95
2022-09-15T08:03:31.468Z,8.13
2022-09-15T08:06:00.131Z,5.85
2022-09-15T08:08:30.515Z,6.90
2022-09-15T08:10:59.125Z,6.78
2022-09-15T08:13:27.311Z,7.22
2022-09-15T08:15:55.445Z,7.10
2022-09-15T08:18:23.469Z,6.97
2022-09-15T08:20:51.479Z,6.97
2022-09-15T08:23:19.556Z,7.40
2022-09-15T08:25:51.481Z,7.07
2022-09-15T08:28:19.590Z,6.72
2022-09-15T08:30:47.590Z,6.93
2022-09-15T08:33:15.590Z,6.95
2022-09-15T08:35:43.555Z,6.55
2022-09-15T08:38:11.514Z,6.43
2022-09-15T08:40:39.592Z,6.75
2022-09-15T08:43:18.187Z,5.65
2022-09-15T08:45:54.048Z,4.75
2022-09-15T08:48:27.490Z,4.80
2022-09-15T08:50:59.140Z,5.07
2022-09-15T08:53:32.635Z,5.00
2022-09-15T08:56:08.233Z,4.38
2022-09-15T08:58:39.727Z,3.90
2022-09-15T09:01:18.727Z,3.65
2022-09-15T09:04:00.770Z,3.40
2022-09-15T09:06:39.930Z,4.07
2022-09-15T09:09:20.820Z,3.88
2022-09-15T09:12:10.311Z,3.67
2022-09-15T09:14:55.019Z,3.67
2022-09-15T09:17:43.232Z,5.20
2022-09-15T09:20:32.255Z,3.83
2022-09-15T09:23:02.484Z,4.30
2022-09-15T09:25:31.320Z,3.55
2022-09-15T09:28:01.349Z,2.72
2022-09-15T09:30:34.370Z,3.10
2022-09-15T09:33:18.819Z,4.10
2022-09-15T09:35:50.136Z,3.90
2022-09-15T09:38:23.967Z,2.85
2022-09-15T09:40:53.025Z,2.97
2022-09-15T09:43:21.550Z,3.15
2022-09-15T09:45:51.033Z,3.30
2022-09-15T09:48:22.164Z,2.63
2022-09-15T09:50:50.804Z,2.95
2022-09-15T09:53:24.656Z,3.60
2022-09-15T09:55:53.497Z,2.60
2022-09-15T09:58:24.149Z,3.28
2022-09-15T10:00:54.365Z,3.03
2022-09-15T10:03:26.219Z,2.65
2022-09-15T10:06:06.466Z,2.70
2022-09-15T10:08:36.771Z,2.55
2022-09-15T10:11:07.802Z,2.00
2022-09-15T10:13:37.407Z,3.08
2022-09-15T10:16:08.024Z,2.38
2022-09-15T10:18:38.728Z,2.10
2022-09-15T10:21:09.519Z,2.38
2022-09-15T10:23:39.054Z,3.08
2022-09-15T10:26:32.169Z,2.92
2022-09-15T10:29:16.267Z,2.83
2022-09-15T10:31:46.999Z,3.00
2022-09-15T10:34:30.578Z,3.22
2022-09-15T10:37:09.718Z,2.85
2022-09-15T10:39:51.457Z,2.97
2022-09-15T10:42:30.873Z,3.00
2022-09-15T10:45:09.787Z,3.47
2022-09-15T10:47:48.464Z,3.40
2022-09-15T10:50:25.314Z,3.60
2022-09-15T10:53:09.784Z,3.25
2022-09-15T10:55:53.034Z,3.63
2022-09-15T10:58:45.051Z,2.78
2022-09-15T11:01:45.690Z,3.60
2022-09-15T11:04:45.589Z,4.22
2022-09-15T11:07:25.039Z,2.70
2022-09-15T11:10:03.049Z,2.70
2022-09-15T11:12:45.920Z,3.03
2022-09-15T11:15:28.138Z,2.80
2022-09-15T11:18:11.665Z,2.70
2022-09-15T11:21:05.146Z,3.08
2022-09-15T11:23:36.347Z,2.55
2022-09-15T11:26:09.392Z,3.67
2022-09-15T11:28:42.486Z,3.10
2022-09-15T11:31:15.590Z,3.13
2022-09-15T11:33:48.223Z,3.70
2022-09-15T11:36:21.263Z,3.22
2022-09-15T11:38:55.169Z,3.45
2022-09-15T11:41:31.142Z,3.40
2022-09-15T11:44:16.182Z,3.38
2022-09-15T11:47:07.686Z,3.78
2022-09-15T11:49:41.933Z,3.05
2022-09-15T11:52:36.707Z,3.97
2022-09-15T11:55:16.791Z,2.40
2022-09-15T11:57:52.263Z,2.60
2022-09-15T12:00:21.982Z,2.65
2022-09-15T12:02:57.275Z,2.83
2022-09-15T12:05:32.103Z,3.40
2022-09-15T12:08:07.349Z,3.10
2022-09-15T12:10:41.661Z,3.08
2022-09-15T12:13:16.814Z,3.15
2022-09-15T12:15:45.628Z,3.35
2022-09-15T12:18:38.104Z,3.05
2022-09-15T12:21:15.833Z,2.47
2022-09-15T12:23:53.313Z,2.65
2022-09-15T12:26:23.499Z,2.42
2022-09-15T12:28:57.375Z,2.53
2022-09-15T12:31:38.051Z,2.35
2022-09-15T12:34:23.279Z,2.25
2022-09-15T12:36:53.824Z,2.05
2022-09-15T12:39:31.790Z,2.45
2022-09-15T12:42:25.101Z,3.00
2022-09-15T12:44:57.077Z,3.05
2022-09-15T12:47:32.972Z,2.45
2022-09-15T12:50:07.420Z,2.25
2022-09-15T12:52:45.874Z,2.30
2022-09-15T12:55:24.018Z,2.35
2022-09-15T12:57:57.980Z,2.13
2022-09-15T13:00:54.766Z,2.30
2022-09-15T13:03:50.242Z,1.92
2022-09-15T13:06:21.602Z,2.20
2022-09-15T13:08:52.026Z,2.58
2022-09-15T13:11:31.854Z,2.92
2022-09-15T13:14:14.779Z,2.53
2022-09-15T13:16:51.854Z,2.95
2022-09-15T13:19:23.729Z,2.38
2022-09-15T13:21:59.809Z,2.30
2022-09-15T13:24:38.921Z,3.60
2022-09-15T13:27:09.644Z,2.58
2022-09-15T13:29:46.529Z,2.55
2022-09-15T13:32:32.834Z,2.47
2022-09-15T13:35:20.834Z,2.20
2022-09-15T13:38:14.016Z,2.30
2022-09-15T13:41:39.728Z,1.95
2022-09-15T13:44:35.793Z,2.90
2022-09-15T13:47:24.489Z,2.42
2022-09-15T13:49:56.839Z,3.15
2022-09-15T13:52:54.734Z,2.50
2022-09-15T13:55:28.254Z,2.30
2022-09-15T14:00:59.867Z,3.03
2022-09-15T14:03:37.009Z,2.60
2022-09-15T14:06:13.748Z,2.42
2022-09-15T14:08:43.440Z,2.17
2022-09-15T14:11:14.518Z,3.13
2022-09-15T14:13:46.046Z,2.53
2022-09-15T14:16:30.587Z,2.90
2022-09-15T14:19:00.225Z,2.65
2022-09-15T14:21:29.712Z,2.30
2022-09-15T14:23:59.719Z,2.67
2022-09-15T14:26:30.283Z,2.70
2022-09-15T14:29:00.184Z,2.63
2022-09-15T14:31:31.718Z,2.33
2022-09-15T14:34:00.025Z,2.58
2022-09-15T14:36:31.122Z,2.30
2022-09-15T14:39:09.096Z,2.50
2022-09-15T14:41:37.804Z,3.15
2022-09-15T14:47:24.527Z,2.55
2022-09-15T14:50:07.911Z,3.13
2022-09-15T14:52:41.629Z,2.97
2022-09-15T14:55:16.645Z,2.58
2022-09-15T14:57:52.183Z,3.20
2022-09-15T15:00:23.716Z,3.00
2022-09-15T15:03:03.805Z,3.55
2022-09-15T15:05:36.687Z,2.58
2022-09-15T15:08:08.314Z,2.63
2022-09-15T15:10:37.638Z,2.63
2022-09-15T15:13:14.217Z,2.70
2022-09-15T15:15:43.405Z,2.05
2022-09-15T15:18:32.200Z,2.00
2022-09-15T15:21:00.467Z,3.67
2022-09-15T15:23:29.425Z,3.05
2022-09-15T15:26:34.509Z,2.80
2022-09-15T15:29:02.723Z,3.42
2022-09-15T15:31:31.443Z,3.03
2022-09-15T15:34:05.605Z,3.22
2022-09-15T15:36:35.867Z,3.00
2022-09-15T15:39:06.783Z,2.85
2022-09-15T15:41:37.405Z,3.15
2022-09-15T15:44:08.932Z,3.42
2022-09-15T15:46:52.489Z,3.35
2022-09-15T15:49:25.963Z,3.60
2022-09-15T15:52:02.864Z,3.10
2022-09-15T15:54:31.935Z,3.35
2022-09-15T15:57:21.668Z,3.67
2022-09-15T15:59:49.680Z,2.92
2022-09-15T16:02:17.837Z,3.20
2022-09-15T16:04:47.361Z,3.22
2022-09-15T16:07:19.010Z,3.50
2022-09-15T16:09:48.547Z,3.80
2022-09-15T16:12:16.718Z,3.50
2022-09-15T16:14:44.845Z,3.67
2022-09-15T16:17:12.855Z,4.22
2022-09-15T16:19:40.896Z,4.38
2022-09-15T16:22:16.745Z,3.42
2022-09-15T16:24:44.766Z,3.80
2022-09-15T16:27:16.474Z,4.70
2022-09-15T16:29:45.006Z,4.55
2022-09-15T16:32:19.312Z,4.72
2022-09-15T16:34:47.953Z,5.07
2022-09-15T16:37:18.595Z,5.72
2022-09-15T16:39:46.726Z,6.53
2022-09-15T16:42:14.898Z,7.35
2022-09-15T16:44:46.389Z,7.72
2022-09-15T16:47:14.473Z,9.07
2022-09-15T16:49:42.759Z,8.25
2022-09-15T16:52:13.905Z,10.02
2022-09-15T16:54:44.571Z,9.07
2022-09-15T16:57:12.567Z,8.35
2022-09-15T16:59:40.641Z,7.85
2022-09-15T17:02:14.724Z,8.85
2022-09-15T17:04:42.871Z,8.02
2022-09-15T17:07:10.995Z,7.90
2022-09-15T17:09:39.014Z,8.23
2022-09-15T17:12:10.466Z,7.82
2022-09-15T17:14:39.146Z,8.45
2022-09-15T17:17:07.727Z,8.93
2022-09-15T17:19:35.797Z,9.10
2022-09-15T17:22:03.892Z,9.80
2022-09-15T17:24:31.929Z,7.72
2022-09-15T17:27:00.271Z,7.80
2022-09-15T17:29:29.738Z,7.82
2022-09-15T17:31:57.837Z,6.13
2022-09-15T17:34:25.909Z,6.68
2022-09-15T17:36:54.031Z,7.07
2022-09-15T17:39:22.175Z,5.93
2022-09-15T17:41:50.989Z,6.93
2022-09-15T17:44:19.173Z,8.95
2022-09-15T17:46:49.396Z,7.80
2022-09-15T17:49:17.965Z,6.60
2022-09-15T17:51:45.982Z,7.07
2022-09-15T17:54:14.087Z,5.63
2022-09-15T17:56:42.368Z,5.25
2022-09-15T17:59:14.316Z,5.32
2022-09-15T18:01:44.879Z,4.93
2022-09-15T18:04:14.660Z,5.68
2022-09-15T18:06:45.546Z,4.88
2022-09-15T18:09:14.861Z,5.00
2022-09-15T18:11:42.949Z,5.60
2022-09-15T18:14:12.045Z,5.03
2022-09-15T18:16:41.987Z,4.32
2022-09-15T18:19:10.987Z,5.60
2022-09-15T18:21:40.506Z,4.80
2022-09-15T18:24:10.769Z,5.35
2022-09-15T18:26:38.789Z,4.95
2022-09-15T18:29:06.923Z,3.92
2022-09-15T18:31:35.192Z,4.28
2022-09-15T18:34:03.271Z,5.20
2022-09-15T18:36:31.448Z,5.80
2022-09-15T18:39:01.251Z,3.92
2022-09-15T18:41:29.368Z,4.43
2022-09-15T18:43:57.747Z,3.30
2022-09-15T18:46:25.899Z,3.95
2022-09-15T18:48:54.125Z,3.67
2022-09-15T18:51:29.174Z,4.47
2022-09-15T18:54:04.527Z,3.38
2022-09-15T18:56:32.632Z,3.50
2022-09-15T18:59:00.737Z,3.50
2022-09-15T19:01:29.067Z,3.85
2022-09-15T19:03:58.343Z,4.20
2022-09-15T19:06:29.785Z,3.88
2022-09-15T19:08:58.406Z,4.10
2022-09-15T19:11:29.363Z,4.13
2022-09-15T19:13:57.845Z,4.35
2022-09-15T19:16:34.702Z,3.95
2022-09-15T19:19:08.612Z,4.03
2022-09-15T19:21:37.455Z,4.28
2022-09-15T19:24:05.823Z,4.45
2022-09-15T19:26:35.346Z,4.53
2022-09-15T19:29:04.267Z,4.68
2022-09-15T19:31:32.720Z,4.60
2022-09-15T19:34:00.804Z,5.03
2022-09-15T19:36:29.405Z,4.25
2022-09-15T19:38:58.073Z,4.20
2022-09-15T19:41:26.554Z,4.18
2022-09-15T19:43:56.069Z,4.38
2022-09-15T19:46:26.211Z,4.57
2022-09-15T19:48:55.283Z,3.72
2022-09-15T19:51:23.915Z,3.80
2022-09-15T19:53:55.231Z,3.70
2022-09-15T19:56:26.319Z,3.95
2022-09-15T19:58:57.085Z,4.18
2022-09-15T20:01:27.377Z,4.15
2022-09-15T20:03:57.038Z,4.43
2022-09-15T20:06:28.946Z,3.95
2022-09-15T20:09:00.228Z,4.90
2022-09-15T20:11:29.669Z,6.20
2022-09-15T20:13:59.696Z,6.13
2022-09-15T20:16:28.531Z,5.05
2022-09-15T20:18:56.970Z,6.38
2022-09-15T20:21:46.288Z,6.13
2022-09-15T20:24:18.996Z,7.25
2022-09-15T20:26:47.383Z,7.10
2022-09-15T20:29:17.208Z,6.78
2022-09-15T20:31:45.210Z,6.28
2022-09-15T20:34:13.340Z,5.82
2022-09-15T20:36:41.629Z,6.53
2022-09-15T20:39:13.212Z,5.72
2022-09-15T20:41:42.255Z,6.53
2022-09-15T20:44:10.321Z,6.00
2022-09-15T20:46:39.792Z,6.53
2022-09-15T20:49:09.033Z,6.10
2022-09-15T20:51:37.149Z,6.70
2022-09-15T20:54:06.232Z,5.45
2022-09-15T20:56:36.298Z,6.07
2022-09-15T20:59:06.122Z,5.85
2022-09-15T21:01:36.357Z,6.35
2022-09-15T21:04:06.936Z,5.13
2022-09-15T21:06:35.973Z,5.22
2022-09-15T21:09:05.838Z,5.95
2022-09-15T21:11:33.951Z,9.07
2022-09-15T21:14:03.685Z,7.03
2022-09-15T21:16:33.877Z,5.93
2022-09-15T21:19:02.491Z,6.07
2022-09-15T21:21:33.642Z,5.97
2022-09-15T21:24:04.160Z,6.50
2022-09-15T21:26:34.118Z,6.43
2022-09-15T21:29:02.764Z,6.53
2022-09-15T21:31:33.319Z,6.63
2022-09-15T21:34:01.416Z,5.22
2022-09-15T21:36:32.217Z,5.70
2022-09-15T21:39:03.021Z,5.10
2022-09-15T21:41:31.278Z,4.55
2022-09-15T21:44:01.078Z,5.78
2022-09-15T21:46:30.458Z,5.60
2022-09-15T21:49:00.576Z,5.10
2022-09-15T21:51:31.349Z,4.95
2022-09-15T21:54:01.077Z,5.25
2022-09-15T21:56:30.361Z,5.40
2022-09-15T21:58:58.503Z,5.75
2022-09-15T22:01:29.266Z,5.50
2022-09-15T22:03:59.900Z,5.55
2022-09-15T22:06:31.745Z,5.53
2022-09-15T22:09:02.105Z,5.22
2022-09-15T22:11:30.337Z,5.45
2022-09-15T22:13:58.800Z,5.30
2022-09-15T22:16:27.165Z,5.65
2022-09-15T22:18:55.622Z,4.70
2022-09-15T22:21:26.184Z,4.95
2022-09-15T22:23:56.772Z,4.90
2022-09-15T22:26:28.479Z,6.47
2022-09-15T22:28:57.207Z,5.18
2022-09-15T22:31:26.159Z,6.95
2022-09-15T22:33:54.906Z,5.65
2022-09-15T22:36:28.977Z,5.35
2022-09-15T22:39:04.130Z,5.85
2022-09-15T22:41:36.687Z,5.60
2022-09-15T22:44:05.319Z,5.35
2022-09-15T22:46:33.556Z,4.80
2022-09-15T22:49:01.978Z,4.60
2022-09-15T22:51:30.410Z,4.50
2022-09-15T22:53:59.376Z,3.65
2022-09-15T22:56:27.743Z,3.90
2022-09-15T22:58:57.774Z,4.18
2022-09-15T23:01:28.402Z,4.03
2022-09-15T23:04:02.106Z,4.00
2022-09-15T23:06:32.498Z,3.30
2022-09-15T23:09:03.405Z,3.28
2022-09-15T23:11:33.413Z,4.05
2022-09-15T23:14:03.238Z,3.22
2022-09-15T23:16:31.665Z,3.70
2022-09-15T23:19:00.709Z,4.13
2022-09-15T23:21:29.108Z,3.28
2022-09-15T23:23:57.515Z,3.80
2022-09-15T23:26:26.874Z,3.40
2022-09-15T23:28:55.043Z,3.20
2022-09-15T23:31:24.589Z,3.65
2022-09-15T23:33:52.769Z,3.90
2022-09-15T23:36:21.228Z,3.47
2022-09-15T23:38:49.928Z,3.10
2022-09-15T23:41:19.157Z,2.95
2022-09-15T23:43:47.682Z,3.78
2022-09-15T23:46:15.841Z,4.00
2022-09-15T23:48:45.406Z,4.45
2022-09-15T23:51:13.373Z,4.10
2022-09-15T23:53:41.376Z,3.70
2022-09-15T23:56:10.403Z,3.85
2022-09-15T23:58:38.927Z,3.25
